METAR Data
IDs: Format: Raw Decoded Include TAF

Data at: 2102 UTC 19 May 2019

KTNU 192055Z AUTO 28015KT 2SM BR SCT010 BKN015 BKN023 13/13 A2975 RMK AO2
KTNU 192035Z AUTO 27015KT 10SM OVC016 13/12 A2975 RMK AO2
KTNU 192015Z AUTO 28014G19KT 10SM OVC020 14/12 A2974 RMK AO2
KTNU 191955Z AUTO 28012G18KT 10SM OVC020 14/12 A2973 RMK AO2
KTNU 191935Z AUTO 28016KT 10SM OVC017 15/12 A2972 RMK AO2
KTNU 191915Z AUTO 29015KT 10SM OVC016 15/13 A2971 RMK AO2
KTNU 191855Z AUTO 29013KT 10SM BKN016 BKN022 OVC041 15/13 A2970 RMK AO2
KTNU 191835Z AUTO 29015KT 10SM FEW007 SCT014 BKN020 14/13 A2969 RMK AO2
KTNU 191815Z AUTO 30013KT 9SM FEW007 SCT012 BKN022 13/13 A2969 RMK AO2
KTNU 191755Z AUTO 30011KT 1 1/2SM BR BKN005 13/13 A2968 RMK AO2
KTNU 191715Z AUTO 30010KT 3SM BR OVC008 14/14 A2966 RMK AO2
KTNU 191655Z AUTO 31010KT 9SM OVC008 14/14 A2965 RMK AO2
KTNU 191635Z AUTO 31009KT 10SM OVC007 14/14 A2964 RMK AO2
KTNU 191615Z AUTO 30010KT 10SM OVC007 14/14 A2963 RMK AO2
KTNU 191555Z AUTO 29007KT 10SM OVC007 14/13 A2962 RMK AO2
KTNU 191515Z AUTO 32007KT 10SM SCT007 BKN011 OVC016 14/14 A2959 RMK AO2
KTNU 191455Z AUTO 31009G15KT 10SM BKN008 OVC015 14/14 A2959 RMK AO2
KTNU 191435Z AUTO 31010KT 10SM BKN007 OVC012 14/14 A2958 RMK AO2
KTNU 191355Z AUTO 33010KT 10SM SCT009 SCT013 BKN070 14/14 A2956 RMK AO2 P0002
KTNU 191315Z AUTO 30007KT 9SM -RA OVC010 14/14 A2956 RMK AO2
KTNU 191235Z AUTO 30006KT 10SM BKN011 OVC017 14/14 A2956 RMK AO2
KTNU 191215Z AUTO 27005KT 10SM BKN012 OVC018 14/14 A2956 RMK AO2
KTNU 191055Z AUTO 27005KT 10SM OVC045 15/14 A2953 RMK AO2
KTNU 191015Z AUTO 28007KT 10SM BKN043 OVC060 15/14 A2952 RMK AO2
KTNU 190915Z AUTO 28011G16KT 5SM BR BKN008 OVC012 15/15 A2953 RMK AO2
KTNU 190815Z AUTO 25005KT 10SM FEW008 SCT012 OVC035 15/15 A2952 RMK AO2
KTNU 190755Z AUTO 26010KT 10SM FEW010 BKN035 OVC040 16/16 A2953 RMK AO2
KTNU 190735Z AUTO 26009G15KT 16/16 A2953 RMK AO2
KTNU 190715Z AUTO 27012KT 10SM SCT009 SCT028 OVC036 16/16 A2953 RMK AO2
KTNU 190635Z AUTO 24014G21KT 2 1/2SM -RA OVC004 16/16 A2953 RMK AO2 VIS 1 1/2V5
KTNU 190615Z AUTO 24009KT 2 1/2SM -RA BKN004 OVC020 17/17 A2953 RMK AO2 VIS 2V3
KTNU 190555Z AUTO 20011KT 6SM BR FEW005 BKN025 OVC030 17/17 A2952 RMK AO2 P0001
KTNU 190535Z AUTO 12008KT 10SM FEW006 OVC027 17/17 A2952 RMK AO2
KTNU 190515Z AUTO 10011KT 10SM BKN030 OVC080 17/17 A2953 RMK AO2
KTNU 190455Z AUTO 09010G16KT 10SM FEW007 SCT060 OVC080 17/17 A2952 RMK AO2
KTNU 190435Z AUTO 09012KT 10SM BKN007 BKN065 OVC080 17/17 A2952 RMK AO2
KTNU 190415Z AUTO 08014G21KT 10SM BKN006 BKN065 OVC110 18/17 A2952 RMK AO2
KTNU 190355Z AUTO 07014G19KT 5SM BR BKN006 BKN009 OVC027 18/18 A2952 RMK AO2 P0006
KTNU 190335Z AUTO 06014KT 3SM -RA BKN008 BKN029 OVC060 18/17 A2954 RMK AO2
KTNU 190315Z AUTO 07009KT 7SM SCT030 BKN065 OVC090 18/18 A2956 RMK AO2
KTNU 190255Z AUTO 06012G19KT 10SM FEW060 SCT075 OVC090 17/17 A2954 RMK AO2 P0001
KTNU 190235Z AUTO 06011G16KT 9SM -DZ FEW026 SCT060 OVC090 17/17 A2954 RMK AO2
KTNU 190215Z AUTO 06009KT 5SM -RA FEW030 SCT043 BKN080 17/17 A2956 RMK AO2
KTNU 190155Z AUTO 03007KT 6SM -RA FEW042 SCT050 BKN100 17/17 A2957 RMK AO2 P0008
KTNU 190135Z AUTO 01007KT 7SM -RA FEW040 FEW055 BKN100 18/17 A2958 RMK AO2
KTNU 190115Z AUTO 03006KT 3SM -RA FEW029 BKN034 BKN050 18/18 A2960 RMK AO2
KTNU 190055Z AUTO VRB04KT 2 1/2SM RA BKN031 BKN037 OVC075 18/18 A2963 RMK AO2 P0019
KTNU 190035Z AUTO 25004KT 3SM RA BKN030 BKN035 OVC041 18/18 A2964 RMK AO2
KTNU 190015Z AUTO 26008KT 4SM RA BKN033 OVC041 18/18 A2963 RMK AO2
KTNU 182355Z AUTO 26012KT 3SM RA FEW014 BKN035 OVC080 18/18 A2962 RMK AO2 P0014
KTNU 182315Z AUTO 25010KT 4SM -RA SCT030 BKN035 OVC100 20/20 A2963 RMK AO2
KTNU 182255Z AUTO 22009KT 3SM RA SCT028 BKN034 OVC070 21/21 A2962 RMK AO2 P0007
KTNU 182235Z AUTO 19009KT 3SM -RA FEW029 SCT036 BKN043 22/20 A2963 RMK AO2
KTNU 182215Z AUTO 21007KT 10SM FEW035 OVC060 24/19 A2962 RMK AO2
KTNU 182155Z AUTO 19006KT 10SM OVC055 24/19 A2961 RMK AO2
KTNU 182135Z AUTO 22008KT 10SM BKN055 BKN070 25/19 A2961 RMK AO2
KTNU 182115Z AUTO 21010KT 10SM BKN060 BKN070 25/18 A2961 RMK AO2
KTNU 182055Z AUTO 20011G17KT 10SM BKN060 25/18 A2962 RMK AO2
KTNU 182035Z AUTO 19012KT 10SM BKN070 BKN080 26/20 A2961 RMK AO2
KTNU 182015Z AUTO 18012KT 10SM OVC070 25/19 A2961 RMK AO2
KTNU 181955Z AUTO 17013G18KT 10SM OVC070 25/20 A2961 RMK AO2
KTNU 181935Z AUTO 18014G19KT 10SM BKN065 26/19 A2960 RMK AO2
KTNU 181915Z AUTO 16015G20KT 10SM CLR 25/20 A2960 RMK AO2
KTNU 181855Z AUTO 15016KT 10SM CLR 25/20 A2960 RMK AO2
KTNU 181835Z AUTO 15015KT 10SM CLR 25/21 A2959 RMK AO2
KTNU 181815Z AUTO 17015KT 10SM CLR 24/20 A2960 RMK AO2
KTNU 181755Z AUTO 17016G21KT 10SM CLR 24/21 A2960 RMK AO2
KTNU 181735Z AUTO 18016G23KT 10SM CLR 24/21 A2959 RMK AO2
KTNU 181715Z AUTO 16018KT 10SM CLR 23/21 A2957 RMK AO2
KTNU 181655Z AUTO 15018KT 10SM CLR 22/20 A2957 RMK AO2
KTNU 181635Z AUTO 16016KT 10SM CLR 22/20 A2957 RMK AO2
KTNU 181615Z AUTO 13015KT 10SM CLR 22/20 A2956 RMK AO2
KTNU 181555Z AUTO 20011G19KT 10SM CLR 21/19 A2963 RMK AO2
KTNU 181535Z AUTO 21012KT 10SM FEW100 20/19 A2967 RMK AO2
KTNU 181515Z AUTO 17011KT 10SM SCT080 BKN100 19/19 A2965 RMK AO2
KTNU 181455Z AUTO 20012G18KT 10SM BKN080 OVC100 18/18 A2970 RMK AO2
KTNU 181435Z AUTO 17013KT 10SM BKN085 BKN110 18/18 A2969 RMK AO2
KTNU 181415Z AUTO 19010KT 8SM BKN090 BKN110 17/17 A2969 RMK AO2
KTNU 181355Z AUTO 15009KT 4SM BR FEW032 FEW046 SCT100 16/16 A2968 RMK AO2
KTNU 181315Z AUTO 13007KT 4SM -RA FEW050 FEW070 SCT120 15/15 A2967 RMK AO2
KTNU 181255Z AUTO 12005KT 4SM BR FEW080 SCT110 15/15 A2967 RMK AO2
KTNU 181235Z AUTO 13005KT 3SM BR FEW070 BKN080 BKN110 15/15 A2967 RMK AO2
KTNU 181135Z AUTO 11009G15KT 3SM BR FEW003 BKN045 OVC050 15/15 A2966 RMK AO2
KTNU 181055Z AUTO 11009G14KT 2SM BR BKN003 BKN050 OVC060 14/14 A2967 RMK AO2
KTNU 180935Z AUTO 12010KT 3/4SM BR OVC002 15/15 A2969 RMK AO2
KTNU 180915Z AUTO 11011KT 3/4SM BR OVC002 15/15 A2969 RMK AO2